Latest Weather Observations for Ballarat

IDV60801

Issued at 11:31 am EDT Thursday 11 February 2016 (issued every 30 minutes, with the page automatically refreshed every 10 minutes)

About weather observations | Map of weather stations | Latest weather observations for VIC | Other Formats
Station Details ID: 089002 Name: BALLARAT AERODROME Lat: -37.51 Lon: 143.79 Height: 435.2 m
Data from the previous 72 hours. | See also: Recent months at Ballarat
Date/Time
EDT
Temp
°C
App
Temp
°C
Dew
Point
Rel
Hum
%
Delta-T
°C
Wind Press
QNH
hPa
Press
MSL
hPa
Rain
since 9 am
mm
Dir
 
Spd
km/h
Gust
km/h
Spd
kts
Gust
kts
11/11:30am 21.5 16.6 11.2 52 5.8 SE 28 37 15 20 1016.9 1015.5 0.0
11/11:00am 20.4 15.5 11.3 56 5.1 SE 28 39 15 21 1017.2 1015.8 0.0
11/10:30am 19.3 14.0 11.1 59 4.6 SSE 30 39 16 21 1017.2 1015.8 0.0
11/10:00am 18.8 13.5 11.4 62 4.1 SE 30 37 16 20 1017.2 1015.8 0.0
11/09:30am 17.4 11.7 11.2 67 3.4 SE 32 43 17 23 1017.1 1015.7 0.0
11/09:00am 16.3 10.8 11.7 74 2.5 SE 32 43 17 23 1017.1 1015.7 0.0
11/08:30am 15.9 11.2 11.9 77 2.2 SE 28 39 15 21 1016.9 1015.5 0.0
11/08:00am 14.8 10.2 12.3 85 1.4 SE 28 39 15 21 1016.8 1015.4 0.0
11/07:56am 14.6 10.4 12.3 86 1.3 SE 26 39 14 21 1016.8 1015.4 0.0
11/07:30am 14.1 9.6 12.5 90 0.9 SE 28 39 15 21 1016.7 1015.3 0.0
11/07:17am 14.1 10.4 12.7 91 0.8 SSE 24 35 13 19 1016.6 1015.2 0.0
11/07:00am 13.7 9.9 12.3 91 0.8 SSE 24 32 13 17 1016.4 1015.0 0.0
11/06:30am 13.6 9.3 12.0 90 0.9 SSE 26 35 14 19 1016.1 1014.7 0.0
11/06:00am 13.5 9.6 12.1 91 0.8 SE 24 41 13 22 1015.8 1014.4 0.0
11/05:35am 13.6 9.8 12.3 92 0.7 SSE 24 33 13 18 1015.7 1014.3 0.0
11/05:30am 13.7 9.9 12.4 92 0.7 SSE 24 32 13 17 1015.7 1014.3 0.0
11/05:15am 13.8 9.3 12.5 92 0.7 SE 28 37 15 20 1015.5 1014.2 0.0
11/05:09am 13.9 9.4 12.6 92 0.7 SSE 28 35 15 19 1015.4 1014.1 0.0
11/05:00am 13.9 10.2 12.8 93 0.6 SE 24 33 13 18 1015.3 1014.0 0.0
11/04:30am 13.9 10.3 13.0 94 0.5 SSE 24 33 13 18 1015.3 1014.0 0.0
11/04:00am 14.0 10.1 13.2 95 0.5 SE 26 33 14 18 1015.4 1014.1 0.0
11/03:57am 13.9 10.0 13.3 96 0.3 SE 26 33 14 18 1015.4 1014.1 0.0
11/03:30am 13.7 10.2 13.4 98 0.2 SSE 24 33 13 18 1015.5 1014.2 0.0
11/03:00am 13.7 9.7 13.1 96 0.3 SE 26 35 14 19 1015.7 1014.3 0.0
11/02:30am 13.7 9.0 13.2 97 0.3 SE 30 39 16 21 1016.0 1014.6 0.0
11/02:10am 13.7 9.8 13.4 98 0.2 SE 26 32 14 17 1016.1 1014.7 0.0
11/02:00am 13.7 10.2 13.4 98 0.2 SE 24 32 13 17 1016.2 1014.8 0.0
11/01:32am 13.8 10.3 13.5 98 0.2 SE 24 32 13 17 1016.3 1014.9 0.0
11/01:30am 13.8 10.0 13.5 98 0.2 SE 26 35 14 19 1016.4 1015.0 0.0
11/01:00am 13.8 9.2 13.5 98 0.2 SE 30 35 16 19 1016.5 1015.1 0.0
11/12:30am 14.0 11.3 13.5 97 0.3 SE 20 26 11 14 1016.7 1015.3 0.0
11/12:00am 14.3 11.1 13.2 93 0.6 SE 22 30 12 16 1016.7 1015.3 0.0
 
Date/Time
EDT
Temp
°C
App
Temp
°C
Dew
Point
Rel
Hum
%
Delta-T
°C
Wind Press
QNH
hPa
Press
MSL
hPa
Rain
since 9 am
mm
Dir
 
Spd
km/h
Gust
km/h
Spd
kts
Gust
kts
10/11:30pm 14.9 11.5 12.6 86 1.3 SE 22 28 12 15 1016.8 1015.4 0.0
10/11:00pm 15.6 12.0 12.0 79 2.0 SE 22 30 12 16 1016.9 1015.5 0.0
10/10:30pm 17.0 13.4 11.9 72 2.8 SE 22 28 12 15 1016.8 1015.4 0.0
10/10:00pm 18.4 15.1 11.5 64 3.9 SE 20 26 11 14 1016.6 1015.2 0.0
10/09:30pm 19.4 15.4 10.4 56 5.0 SE 22 32 12 17 1016.3 1014.9 0.0
10/09:00pm 20.3 16.4 9.5 50 5.9 SE 20 26 11 14 1015.9 1014.5 0.0
10/08:30pm 22.0 18.7 9.5 45 6.9 SE 17 20 9 11 1015.7 1014.3 0.0
10/08:00pm 24.2 21.1 9.0 38 8.4 SSE 15 20 8 11 1015.3 1014.0 0.0
10/07:30pm 25.8 21.4 6.4 29 10.3 SSW 19 24 10 13 1015.0 1013.6 0.0
10/07:00pm 26.3 21.3 6.4 28 10.6 S 22 28 12 15 1014.9 1013.5 0.0
10/06:30pm 26.9 22.1 4.6 24 11.5 SSW 19 24 10 13 1014.6 1013.2 0.0
10/06:00pm 27.2 22.4 5.5 25 11.4 SSE 20 28 11 15 1014.4 1013.0 0.0
10/05:30pm 27.1 21.9 3.6 22 12.0 S 20 33 11 18 1014.3 1012.9 0.0
10/05:00pm 27.2 22.3 4.9 24 11.6 S 20 28 11 15 1014.3 1012.9 0.0
10/04:30pm 27.5 23.0 6.8 27 11.2 S 20 30 11 16 1014.5 1013.1 0.0
10/04:00pm 27.9 23.1 5.5 24 11.8 SSE 20 32 11 17 1014.6 1013.2 0.0
10/03:30pm 26.5 21.8 6.0 27 10.8 S 20 30 11 16 1014.9 1013.5 0.0
10/03:00pm 26.9 22.4 6.9 28 10.8 S 20 33 11 18 1015.0 1013.6 0.0
10/02:30pm 26.4 22.0 6.4 28 10.7 SSE 19 30 10 16 1015.1 1013.7 0.0
10/02:00pm 27.0 22.5 5.9 26 11.2 S 19 26 10 14 1015.2 1013.8 0.0
10/01:30pm 26.0 21.9 6.1 28 10.5 SSE 17 26 9 14 1015.4 1014.1 0.0
10/01:00pm 24.9 20.0 4.1 26 10.5 S 19 28 10 15 1015.7 1014.3 0.0
10/12:30pm 25.2 20.4 5.4 28 10.3 SSE 20 28 11 15 1016.1 1014.7 0.0
10/12:00pm 23.6 19.3 6.8 34 8.9 S 19 26 10 14 1016.4 1015.0 0.0
10/11:30am 21.9 18.2 8.1 41 7.4 S 17 26 9 14 1016.6 1015.2 0.0
10/11:00am 21.4 18.6 9.9 48 6.3 S 15 20 8 11 1016.5 1015.1 0.0
10/10:30am 19.5 17.8 12.3 63 4.1 SSE 13 19 7 10 1016.6 1015.2 0.0
10/10:00am 17.3 14.9 12.8 75 2.6 SE 17 22 9 12 1016.6 1015.2 0.0
10/09:31am 15.0 11.7 12.7 86 1.3 SE 22 28 12 15 1016.9 1015.5 0.0
10/09:30am 15.0 12.0 12.7 86 1.3 SE 20 28 11 15 1016.9 1015.5 0.0
10/09:00am 13.8 11.1 13.5 98 0.2 SE 20 24 11 13 1016.9 1015.5 0.0
10/08:30am 12.9 10.2 12.9 100 0.0 SSE 19 24 10 13 1016.9 1015.5 0.0
10/08:00am 12.2 8.7 12.2 100 0.0 SSE 22 28 12 15 1016.5 1015.1 0.0
10/07:44am 12.4 9.9 12.4 100 0.0 SSE 17 20 9 11 1016.2 1014.8 0.0
10/07:30am 12.3 9.8 12.3 100 0.0 SSE 17 20 9 11 1015.9 1014.5 0.0
10/07:15am 12.4 9.9 12.4 100 0.0 SSE 17 22 9 12 1015.8 1014.4 0.0
10/07:00am 12.5 10.1 12.5 100 0.0 SSE 17 20 9 11 1015.9 1014.5 0.0
10/06:30am 12.0 10.5 12.0 100 0.0 S 11 15 6 8 1015.5 1014.2 0.0
10/06:00am 12.1 9.9 12.1 100 0.0 SE 15 19 8 10 1015.2 1013.8 0.0
10/05:30am 12.5 10.4 12.5 100 0.0 SE 15 20 8 11 1015.1 1013.7 0.0
10/05:10am 12.4 9.5 12.4 100 0.0 SE 19 24 10 13 1015.2 1013.8 0.0
10/05:00am 12.2 9.1 12.2 100 0.0 SE 20 24 11 13 1015.2 1013.8 0.0
10/04:52am 12.3 10.2 12.3 100 0.0 SE 15 22 8 12 1015.2 1013.8 0.0
10/04:30am 12.2 9.7 12.2 100 0.0 SSE 17 22 9 12 1015.3 1014.0 0.0
10/04:13am 12.3 9.4 12.3 100 0.0 SSE 19 26 10 14 1015.4 1014.1 0.0
10/04:00am 12.4 9.4 12.4 100 0.0 SSE 20 26 11 14 1015.5 1014.2 0.0
10/03:30am 12.8 11.1 12.6 99 0.1 SE 13 17 7 9 1015.4 1014.1 0.0
10/03:00am 12.8 10.4 12.6 99 0.1 SE 17 20 9 11 1015.7 1014.3 0.0
10/02:30am 13.3 10.4 13.0 98 0.2 SE 20 24 11 13 1016.0 1014.6 0.0
10/02:00am 13.7 11.5 13.4 98 0.2 SSE 17 20 9 11 1016.4 1015.0 0.0
10/01:30am 14.3 12.0 13.0 92 0.7 SE 17 20 9 11 1016.7 1015.3 0.0
10/01:00am 14.4 12.7 12.4 88 1.1 SSE 13 17 7 9 1017.0 1015.6 0.0
10/12:30am 15.3 12.9 12.6 84 1.5 SSE 17 22 9 12 1017.1 1015.7 0.0
10/12:00am 15.4 13.3 12.3 82 1.7 SE 15 19 8 10 1017.1 1015.7 0.0
 
Date/Time
EDT
Temp
°C
App
Temp
°C
Dew
Point
Rel
Hum
%
Delta-T
°C
Wind Press
QNH
hPa
Press
MSL
hPa
Rain
since 9 am
mm
Dir
 
Spd
km/h
Gust
km/h
Spd
kts
Gust
kts
09/11:30pm 16.0 13.1 12.2 78 2.1 SE 19 24 10 13 1017.4 1016.1 0.0
09/11:00pm 16.7 14.0 11.8 73 2.7 SE 17 22 9 12 1017.8 1016.5 0.0
09/10:30pm 17.5 15.0 12.2 71 3.0 SE 17 22 9 12 1017.8 1016.5 0.0
09/10:00pm 18.5 14.9 12.0 66 3.7 ESE 22 28 12 15 1017.6 1016.3 0.0
09/09:30pm 19.1 16.0 12.1 64 4.0 SE 20 24 11 13 1017.5 1016.2 0.0
09/09:00pm 20.2 15.9 11.9 59 4.7 SE 26 32 14 17 1017.6 1016.3 0.0
09/08:30pm 21.8 17.8 11.8 53 5.7 SE 24 32 13 17 1017.7 1016.4 0.0
09/08:00pm 23.8 19.4 10.5 43 7.5 SE 24 32 13 17 1017.5 1016.2 0.0
09/07:30pm 25.6 21.0 9.8 37 8.9 SE 24 30 13 16 1017.2 1015.8 0.0
09/07:00pm 26.7 22.0 9.1 33 9.8 SE 24 32 13 17 1017.1 1015.7 0.0
09/06:30pm 28.1 23.8 9.4 31 10.6 SE 22 28 12 15 1016.9 1015.5 0.0
09/06:00pm 28.5 24.3 8.2 28 11.3 SSE 20 28 11 15 1016.9 1015.5 0.0
09/05:30pm 29.1 26.0 7.1 25 12.0 SE 13 22 7 12 1017.1 1015.7 0.0
09/05:00pm 29.0 25.2 7.6 26 11.8 SSE 17 26 9 14 1017.4 1016.1 0.0
09/04:30pm 28.7 25.1 4.9 22 12.5 SSE 13 20 7 11 1017.7 1016.4 0.0
09/04:00pm 28.8 25.2 5.0 22 12.5 S 13 20 7 11 1018.0 1016.7 0.0
09/03:30pm 29.0 26.8 6.4 24 12.2 SSW 7 15 4 8 1018.4 1017.0 0.0
09/03:00pm 27.3 24.4 6.7 27 11.1 SSE 11 20 6 11 1018.9 1017.5 0.0
09/02:30pm 27.7 24.3 9.0 31 10.5 SSE 17 24 9 13 1019.2 1017.8 0.0
09/02:00pm 27.5 24.4 10.2 34 9.9 SE 17 26 9 14 1019.5 1018.2 0.0
09/01:30pm 25.4 21.4 8.4 34 9.3 SE 19 28 10 15 1019.9 1018.6 0.0
09/01:00pm 25.2 20.8 9.1 36 8.9 SSE 22 32 12 17 1020.2 1018.9 0.0
09/12:30pm 23.6 19.6 9.2 40 7.9 SE 20 28 11 15 1020.4 1019.1 0.0
09/12:00pm 23.3 19.6 10.0 43 7.4 SE 20 30 11 16 1020.9 1019.5 0.0
09/11:30am 21.6 17.9 10.1 48 6.4 SSE 20 30 11 16 1021.1 1019.7 0.0
09/11:00am 20.6 17.0 10.7 53 5.5 SSE 20 32 11 17 1021.3 1019.9 0.0
09/10:30am 19.5 14.8 10.5 56 5.0 SSE 26 35 14 19 1021.3 1019.9 0.0
09/10:00am 18.3 13.2 10.7 61 4.2 SE 28 35 15 19 1021.4 1020.1 0.0
09/09:30am 16.8 11.7 10.6 67 3.4 SSE 28 33 15 18 1021.5 1020.2 0.0
09/09:00am 15.9 10.5 10.9 72 2.7 SE 30 37 16 20 1021.6 1020.3 -
09/08:30am 14.8 9.3 10.6 76 2.3 SE 30 39 16 21 1021.5 1020.2 -
09/08:00am 13.9 8.1 10.7 81 1.7 SE 32 41 17 22 1021.3 1019.9 -
09/07:30am 13.3 8.3 11.0 86 1.2 SE 28 39 15 21 1021.1 1019.7 -
09/07:00am 13.2 7.3 11.3 88 1.0 SE 33 44 18 24 1021.1 1019.7 -
09/06:50am 13.1 7.4 11.3 89 1.0 SE 32 43 17 23 1021.0 1019.6 -
09/06:30am 13.5 8.0 11.7 89 1.0 SE 32 43 17 23 1020.8 1019.4 -
09/06:00am 13.7 8.2 11.9 89 1.0 SE 32 43 17 23 1020.8 1019.4 -
09/05:30am 13.7 8.6 11.9 89 1.0 SE 30 41 16 22 1020.7 1019.3 -
09/05:00am 13.7 9.4 12.1 90 0.9 SE 26 35 14 19 1020.8 1019.4 -
09/04:30am 13.3 8.1 11.7 90 0.9 SSE 30 41 16 22 1020.8 1019.4 -
09/04:00am 13.5 7.9 11.6 88 1.0 SE 32 43 17 23 1020.9 1019.5 -
09/03:30am 13.3 7.4 11.2 87 1.1 SE 33 43 18 23 1021.1 1019.7 -
09/03:28am 13.3 7.6 11.2 87 1.1 SE 32 43 17 23 1021.1 1019.7 -
09/03:00am 13.3 9.0 10.8 85 1.3 SE 24 35 13 19 1021.3 1019.9 0.0
09/02:30am 13.5 8.5 10.9 84 1.4 SE 28 43 15 23 1021.5 1020.2 -
09/02:00am 13.5 9.2 10.9 84 1.4 SSE 24 32 13 17 1021.7 1020.4 -
09/01:30am 13.7 8.3 10.9 83 1.5 SSE 30 43 16 23 1022.0 1020.7 -
09/01:00am 13.9 9.0 11.2 84 1.5 SE 28 39 15 21 1022.2 1020.9 -
09/12:30am 13.9 9.0 11.2 84 1.5 SSE 28 37 15 20 1022.5 1021.2 -
09/12:00am 14.0 9.5 11.5 85 1.4 SSE 26 35 14 19 1022.6 1021.3 -
 
Date/Time
EDT
Temp
°C
App
Temp
°C
Dew
Point
Rel
Hum
%
Delta-T
°C
Wind Press
QNH
hPa
Press
MSL
hPa
Rain
since 9 am
mm
Dir
 
Spd
km/h
Gust
km/h
Spd
kts
Gust
kts
08/11:30pm 14.2 9.7 11.5 84 1.5 SE 26 39 14 21 1023.0 1021.6 -
08/11:00pm 14.4 10.0 11.6 83 1.5 SSE 26 32 14 17 1023.1 1021.7 -
08/10:30pm 14.5 9.7 11.7 83 1.5 SE 28 39 15 21 1023.2 1021.8 -
08/10:00pm 15.2 11.1 11.6 79 2.0 SE 24 33 13 18 1023.1 1021.7 -
08/09:30pm 16.1 12.7 11.3 73 2.6 SE 20 30 11 16 1022.8 1021.5 -
08/09:00pm 17.6 13.9 11.6 68 3.3 SE 22 30 12 16 1022.5 1021.2 0.0
08/08:30pm 19.3 15.3 11.8 62 4.2 SSE 24 32 13 17 1022.2 1020.9 -
08/08:00pm 20.7 16.2 11.3 55 5.3 SSE 26 35 14 19 1021.8 1020.5 -
08/07:30pm 22.0 17.5 11.4 51 6.0 SSE 26 35 14 19 1021.5 1020.2 -
08/07:00pm 23.5 18.9 10.9 45 7.1 SSE 26 33 14 18 1021.1 1019.7 -
08/06:30pm 24.3 19.2 10.6 42 7.8 SSE 28 37 15 20 1020.9 1019.5 -
08/06:00pm 24.9 19.7 10.4 40 8.2 SE 28 41 15 22 1020.9 1019.5 -
08/05:30pm 26.0 21.6 8.9 34 9.5 SE 22 33 12 18 1020.8 1019.4 -
08/05:00pm 27.3 22.0 6.7 27 11.1 S 24 37 13 20 1020.9 1019.5 -
08/04:30pm 26.7 21.5 7.2 29 10.5 SSE 24 33 13 18 1021.1 1019.7 -
08/04:00pm 26.8 21.9 6.8 28 10.7 SSE 22 32 12 17 1021.3 1019.9 -
08/03:30pm 26.7 21.8 6.7 28 10.7 S 22 33 12 18 1021.6 1020.3 -
08/03:00pm 26.1 20.9 7.2 30 10.2 S 24 35 13 19 1021.7 1020.4 0.2
08/02:30pm 25.8 21.0 8.8 34 9.4 S 24 39 13 21 1021.8 1020.5 -
08/02:00pm 25.4 21.6 9.7 37 8.8 SE 20 32 11 17 1021.9 1020.6 -
08/01:30pm 24.7 20.4 9.4 38 8.5 SSE 22 32 12 17 1022.2 1020.9 -
08/01:00pm 24.4 20.2 11.0 43 7.6 S 24 35 13 19 1022.4 1021.1 -
08/12:30pm 22.4 17.7 10.5 47 6.7 SSE 26 33 14 18 1022.5 1021.2 -
08/12:00pm 21.3 17.1 12.4 57 5.1 SSE 26 35 14 19 1022.7 1021.4 -

Other Formats:

Comma delimited format used in spreadsheet applications
http://www.bom.gov.au/fwo/IDV60801/IDV60801.94852.axf

JavaScript Object Notation format (JSON) in row-major order
http://www.bom.gov.au/fwo/IDV60801/IDV60801.94852.json